Time;durP1;ratioP1;P1;durP2;ratioP2;P2;SDS_P1;SDS_P2;PMS_P1;PMS_P2;Temp;Humidity;BMP_temperature;BMP_pressure;BME280_temperature;BME280_humidity;BME280_pressure;Samples;Min_cycle;Max_cycle;Signal;HPM_P1;HPM_P2
2021/05/17 00:01:57;;;;;;;10.98;6.28;;;11.40;99.80;;;;;;5048443;28;20041;-81
2021/05/17 00:04:32;;;;;;;11.18;6.70;;;11.40;99.80;;;;;;5065010;28;20444;-82
2021/05/17 00:07:00;;;;;;;11.35;7.07;;;11.30;99.90;;;;;;5032831;28;20033;-80
2021/05/17 00:09:26;;;;;;;10.48;7.20;;;11.20;99.90;;;;;;5048415;28;20025;-79
2021/05/17 00:11:52;;;;;;;12.68;6.45;;;11.20;99.90;;;;;;5031694;28;20049;-81
2021/05/17 00:14:19;;;;;;;13.88;8.30;;;11.10;99.90;;;;;;5048150;28;20025;-80
2021/05/17 00:16:46;;;;;;;11.57;6.85;;;11.10;99.90;;;;;;5031552;28;20041;-79
2021/05/17 00:19:12;;;;;;;11.63;7.38;;;11.00;99.90;;;;;;5031481;28;20033;-80
2021/05/17 00:21:39;;;;;;;11.32;6.60;;;10.90;99.90;;;;;;5048222;28;20501;-79
2021/05/17 00:24:05;;;;;;;8.65;6.30;;;10.90;99.90;;;;;;5048037;28;20116;-81
2021/05/17 00:26:31;;;;;;;10.88;5.47;;;10.80;99.90;;;;;;5048212;28;20078;-79
2021/05/17 00:28:57;;;;;;;10.07;6.18;;;10.80;99.90;;;;;;5031566;28;20024;-80
2021/05/17 00:31:23;;;;;;;11.75;5.93;;;10.80;99.90;;;;;;5048078;28;20020;-81
2021/05/17 00:33:49;;;;;;;11.70;5.47;;;10.70;99.90;;;;;;5047873;28;20029;-81
2021/05/17 00:36:16;;;;;;;7.57;5.28;;;10.70;99.90;;;;;;5031257;28;20124;-80
2021/05/17 00:38:42;;;;;;;10.88;6.30;;;10.60;99.90;;;;;;5047843;28;20037;-80
2021/05/17 00:41:08;;;;;;;7.00;5.35;;;10.60;99.90;;;;;;5047585;28;20053;-80
2021/05/17 00:43:37;;;;;;;9.20;5.38;;;10.60;99.90;;;;;;5047592;28;20059;-80
2021/05/17 00:46:05;;;;;;;8.27;5.50;;;10.60;99.90;;;;;;5031713;28;20052;-80
2021/05/17 00:48:31;;;;;;;10.30;5.68;;;10.60;99.90;;;;;;5048931;28;20454;-80
2021/05/17 00:50:58;;;;;;;8.88;5.60;;;10.60;99.90;;;;;;5030152;28;20025;-82
2021/05/17 00:53:24;;;;;;;10.10;5.50;;;10.60;99.90;;;;;;5047553;28;20025;-82
2021/05/17 00:55:50;;;;;;;10.85;6.63;;;10.60;99.90;;;;;;5031029;28;20076;-80
2021/05/17 00:58:16;;;;;;;12.20;6.45;;;10.60;99.90;;;;;;5047504;28;20121;-81
2021/05/17 01:00:42;;;;;;;8.13;5.25;;;10.60;99.90;;;;;;5047236;28;20029;-80
2021/05/17 01:03:09;;;;;;;8.95;5.55;;;10.60;99.90;;;;;;5030868;28;20029;-82
2021/05/17 01:05:36;;;;;;;7.63;4.97;;;10.60;99.90;;;;;;5047578;28;20091;-81
2021/05/17 01:08:03;;;;;;;14.48;5.72;;;10.60;99.90;;;;;;5047271;28;20025;-80
2021/05/17 01:10:31;;;;;;;8.30;5.28;;;10.60;99.90;;;;;;5047232;28;20029;-80
2021/05/17 01:12:57;;;;;;;9.18;5.03;;;10.50;99.90;;;;;;5030600;28;20120;-82
2021/05/17 01:15:23;;;;;;;9.63;5.70;;;10.50;99.90;;;;;;5047135;28;20032;-81
2021/05/17 01:17:49;;;;;;;10.18;7.00;;;10.50;99.90;;;;;;5047177;28;20049;-83
2021/05/17 01:20:16;;;;;;;8.30;5.13;;;10.50;99.90;;;;;;5046910;28;20072;-80
2021/05/17 01:23:00;;;;;;;11.07;6.10;;;10.50;99.90;;;;;;5047053;28;20454;-81
2021/05/17 01:25:28;;;;;;;9.65;6.20;;;10.50;99.90;;;;;;5046960;28;20063;-80
2021/05/17 01:27:55;;;;;;;11.00;5.85;;;10.50;99.90;;;;;;5046836;28;20534;-80
2021/05/17 01:30:22;;;;;;;9.75;5.63;;;10.50;99.90;;;;;;5030529;28;20029;-82
2021/05/17 01:32:55;;;;;;;9.35;5.47;;;10.40;99.90;;;;;;5030327;28;20035;-80
2021/05/17 01:35:21;;;;;;;8.23;5.32;;;10.50;99.90;;;;;;5030784;28;20036;-81
2021/05/17 01:37:48;;;;;;;7.80;5.07;;;10.40;99.90;;;;;;5046791;28;20067;-81
2021/05/17 01:40:19;;;;;;;7.53;4.82;;;10.40;99.90;;;;;;5029979;28;20056;-81
2021/05/17 01:42:45;;;;;;;10.77;5.30;;;10.40;99.90;;;;;;5046647;28;20535;-79
2021/05/17 01:45:11;;;;;;;6.80;4.55;;;10.40;99.90;;;;;;5046497;28;20033;-81
2021/05/17 01:47:42;;;;;;;6.82;4.72;;;10.40;99.90;;;;;;5047994;28;20029;-81
2021/05/17 01:50:11;;;;;;;8.43;5.95;;;10.30;99.90;;;;;;5030148;28;20025;-81
2021/05/17 01:52:38;;;;;;;11.18;5.68;;;10.30;99.90;;;;;;5046552;28;20023;-81
2021/05/17 01:55:09;;;;;;;7.80;5.78;;;10.20;99.90;;;;;;5046557;28;20041;-80
2021/05/17 01:57:35;;;;;;;7.78;4.78;;;10.20;99.90;;;;;;5047988;28;20033;-80
2021/05/17 02:00:03;;;;;;;8.40;5.28;;;10.10;99.90;;;;;;5046585;28;20029;-81
2021/05/17 02:02:29;;;;;;;9.25;5.47;;;10.10;99.90;;;;;;5046293;28;20029;-80
2021/05/17 02:04:55;;;;;;;8.35;5.10;;;10.10;99.90;;;;;;5046349;28;20509;-80
2021/05/17 02:07:22;;;;;;;14.55;5.70;;;10.10;99.90;;;;;;5046364;28;20533;-81
2021/05/17 02:09:53;;;;;;;9.30;5.40;;;10.00;99.90;;;;;;5046400;28;20128;-80
2021/05/17 02:12:23;;;;;;;7.70;5.18;;;10.00;99.90;;;;;;5046288;28;20029;-80
2021/05/17 02:14:54;;;;;;;8.13;5.40;;;10.00;99.90;;;;;;5047625;28;20055;-80
2021/05/17 02:17:23;;;;;;;6.65;5.03;;;9.90;99.90;;;;;;5046258;28;20037;-80
2021/05/17 02:19:50;;;;;;;10.07;5.85;;;9.90;99.90;;;;;;5046369;28;20391;-80
2021/05/17 02:22:17;;;;;;;7.93;5.90;;;9.90;99.90;;;;;;5046168;28;20081;-80
2021/05/17 02:24:45;;;;;;;11.35;6.28;;;9.90;99.90;;;;;;5029725;28;20540;-81
2021/05/17 02:27:15;;;;;;;7.97;5.95;;;9.90;99.90;;;;;;5046075;28;20029;-80
2021/05/17 02:29:41;;;;;;;10.63;5.75;;;9.90;99.90;;;;;;5046713;28;20036;-82
2021/05/17 02:32:07;;;;;;;6.30;4.47;;;9.90;99.90;;;;;;5046164;28;20043;-80
2021/05/17 02:34:34;;;;;;;8.35;5.18;;;9.90;99.90;;;;;;5046141;28;20021;-81
2021/05/17 02:37:01;;;;;;;7.80;5.00;;;10.00;99.90;;;;;;5046333;28;20033;-80
2021/05/17 02:39:27;;;;;;;8.63;4.70;;;10.00;99.90;;;;;;5045984;28;20025;-80
2021/05/17 02:41:55;;;;;;;11.90;5.03;;;10.00;99.90;;;;;;5045910;28;20060;-81
2021/05/17 02:44:21;;;;;;;8.68;5.20;;;9.90;99.90;;;;;;5045902;28;20021;-81
2021/05/17 02:46:47;;;;;;;7.05;4.35;;;10.00;99.90;;;;;;5029513;28;20041;-81
2021/05/17 02:49:13;;;;;;;6.28;4.50;;;10.00;99.90;;;;;;5046271;28;20483;-80
2021/05/17 02:51:39;;;;;;;5.07;4.10;;;10.00;99.90;;;;;;5046069;28;20039;-80
2021/05/17 02:54:14;;;;;;;6.63;3.88;;;10.00;99.90;;;;;;5045904;28;20029;-79
2021/05/17 02:56:58;;;;;;;7.25;3.30;;;10.00;99.90;;;;;;5047327;28;20036;-81
2021/05/17 02:59:44;;;;;;;5.50;3.03;;;9.90;99.90;;;;;;5045873;28;20051;-81
2021/05/17 03:02:15;;;;;;;9.98;3.30;;;9.90;99.90;;;;;;5047352;28;20375;-81
2021/05/17 03:04:47;;;;;;;5.15;2.92;;;9.80;99.90;;;;;;5045767;28;20031;-80
2021/05/17 03:07:14;;;;;;;7.82;3.60;;;9.80;99.90;;;;;;5047411;28;20032;-80
2021/05/17 03:09:44;;;;;;;8.85;3.30;;;9.80;99.90;;;;;;5029330;28;20044;-81
2021/05/17 03:12:11;;;;;;;5.18;3.25;;;9.70;99.90;;;;;;5046065;28;20025;-80
2021/05/17 03:14:41;;;;;;;5.28;3.22;;;9.60;99.90;;;;;;5048578;28;20131;-80
2021/05/17 03:17:09;;;;;;;5.65;2.83;;;9.60;99.90;;;;;;5050774;28;20400;-81
2021/05/17 03:19:37;;;;;;;5.13;3.15;;;9.50;99.90;;;;;;5049267;28;20123;-81
2021/05/17 03:22:03;;;;;;;5.97;3.20;;;9.50;99.90;;;;;;5049553;28;20029;-81
2021/05/17 03:24:35;;;;;;;5.30;3.08;;;9.50;99.90;;;;;;5049181;28;20471;-80
2021/05/17 03:27:21;;;;;;;6.07;2.97;;;9.40;99.90;;;;;;5049484;28;20483;-82
2021/05/17 03:29:48;;;;;;;6.95;3.13;;;9.40;99.90;;;;;;5049459;28;20119;-80
2021/05/17 03:32:14;;;;;;;5.85;2.63;;;9.40;99.90;;;;;;5048957;28;20056;-82
2021/05/17 03:34:40;;;;;;;5.82;3.10;;;9.30;99.90;;;;;;5049502;28;20056;-81
2021/05/17 03:37:06;;;;;;;4.07;2.50;;;9.30;99.90;;;;;;5050406;28;20536;-81
2021/05/17 03:39:32;;;;;;;10.27;2.97;;;9.30;99.90;;;;;;5049073;28;20112;-80
2021/05/17 03:41:58;;;;;;;6.93;2.88;;;9.20;99.90;;;;;;5049011;28;20140;-81
2021/05/17 03:44:23;;;;;;;4.90;3.15;;;9.20;99.90;;;;;;5048909;28;20108;-82
2021/05/17 03:46:49;;;;;;;4.65;2.80;;;9.20;99.90;;;;;;5048922;28;20032;-82
2021/05/17 03:49:15;;;;;;;6.70;3.72;;;9.10;99.90;;;;;;5031867;28;20082;-81
2021/05/17 03:51:40;;;;;;;6.38;3.00;;;9.10;99.90;;;;;;5032002;28;20025;-81
2021/05/17 03:54:06;;;;;;;3.95;2.92;;;9.10;99.90;;;;;;5048390;28;20029;-80
2021/05/17 03:56:32;;;;;;;5.07;2.72;;;9.00;99.90;;;;;;5048605;28;20036;-81
2021/05/17 03:58:57;;;;;;;7.32;3.15;;;8.90;99.90;;;;;;5031957;28;20047;-81
2021/05/17 04:01:23;;;;;;;6.65;2.92;;;8.90;99.90;;;;;;5031817;28;20025;-81
2021/05/17 04:03:50;;;;;;;4.93;3.03;;;8.90;99.90;;;;;;5048646;28;20115;-80
2021/05/17 04:06:25;;;;;;;5.70;3.20;;;8.90;99.90;;;;;;5048447;28;20021;-80
2021/05/17 04:14:19;;;;;;;5.95;3.13;;;8.80;99.90;;;;;;5048845;28;20047;-82
2021/05/17 04:16:44;;;;;;;4.32;2.72;;;8.70;99.90;;;;;;5031789;28;20029;-81
2021/05/17 04:19:11;;;;;;;5.25;2.72;;;8.70;99.90;;;;;;5031721;28;20041;-80
2021/05/17 04:21:37;;;;;;;4.15;2.92;;;8.70;99.90;;;;;;5048456;28;20025;-82
2021/05/17 04:24:03;;;;;;;3.60;2.55;;;8.70;99.90;;;;;;5031218;28;20407;-82
2021/05/17 04:26:29;;;;;;;5.22;2.92;;;8.70;99.90;;;;;;5031505;28;20077;-82
2021/05/17 04:28:55;;;;;;;6.80;2.92;;;8.70;99.90;;;;;;5048236;28;20080;-81
2021/05/17 04:31:20;;;;;;;4.15;3.00;;;8.70;99.90;;;;;;5031500;28;20081;-80
2021/05/17 04:33:46;;;;;;;2.85;2.22;;;8.70;99.90;;;;;;5048288;28;20025;-81
2021/05/17 04:36:12;;;;;;;3.22;2.15;;;8.70;99.90;;;;;;5031310;28;20029;-81
2021/05/17 04:38:37;;;;;;;8.48;3.05;;;8.70;99.90;;;;;;5047914;28;20393;-81
2021/05/17 04:41:03;;;;;;;5.63;3.17;;;8.70;99.90;;;;;;5047944;28;20048;-81
2021/05/17 04:43:29;;;;;;;6.70;3.00;;;8.70;99.90;;;;;;5031078;28;20036;-82
2021/05/17 04:45:55;;;;;;;3.75;2.78;;;8.70;99.90;;;;;;5047862;28;20032;-81
2021/05/17 04:48:20;;;;;;;10.68;2.88;;;8.70;99.90;;;;;;5031050;28;20025;-81
2021/05/17 04:50:46;;;;;;;5.95;3.00;;;8.70;99.90;;;;;;5048057;28;20025;-82
2021/05/17 04:53:12;;;;;;;6.15;2.88;;;8.70;99.90;;;;;;5047694;28;20112;-81
2021/05/17 04:55:38;;;;;;;7.45;2.65;;;8.70;99.90;;;;;;5047645;28;20021;-81
2021/05/17 04:58:04;;;;;;;4.95;2.50;;;8.70;99.90;;;;;;5031020;28;20490;-81
2021/05/17 05:00:30;;;;;;;6.95;2.55;;;8.70;99.90;;;;;;5047499;28;20025;-81
2021/05/17 05:02:55;;;;;;;3.28;2.50;;;8.70;99.90;;;;;;5047414;28;20025;-81
2021/05/17 05:05:21;;;;;;;4.45;2.47;;;8.70;99.90;;;;;;5047387;28;20036;-81
2021/05/17 05:07:47;;;;;;;3.67;2.58;;;8.80;99.90;;;;;;5030708;28;20025;-81
2021/05/17 05:10:13;;;;;;;6.18;2.78;;;8.70;99.90;;;;;;5047550;28;20390;-81
2021/05/17 05:12:38;;;;;;;4.45;3.03;;;8.80;99.90;;;;;;5030768;28;20032;-81
2021/05/17 05:15:06;;;;;;;4.93;2.50;;;8.80;99.90;;;;;;5030590;28;20033;-81
2021/05/17 05:17:32;;;;;;;6.95;3.22;;;8.80;99.90;;;;;;5030539;28;20025;-81
2021/05/17 05:19:57;;;;;;;4.30;2.70;;;8.80;99.90;;;;;;5030487;28;20036;-80
2021/05/17 05:22:24;;;;;;;5.35;3.00;;;8.90;99.90;;;;;;5030698;28;20024;-81
2021/05/17 05:24:51;;;;;;;6.50;3.00;;;8.90;99.90;;;;;;5046936;28;20040;-82
2021/05/17 05:27:22;;;;;;;5.93;3.38;;;9.00;99.90;;;;;;5047481;28;20017;-82
2021/05/17 05:32:40;;;;;;;5.22;2.65;;;9.10;99.90;;;;;;5047488;28;20025;-81
2021/05/17 05:35:06;;;;;;;5.47;3.10;;;9.10;99.90;;;;;;5032251;28;20033;-80
2021/05/17 05:37:32;;;;;;;7.90;3.40;;;9.10;99.90;;;;;;5046216;28;20107;-82
2021/05/17 05:39:58;;;;;;;7.53;3.10;;;9.20;99.90;;;;;;5030319;28;20107;-80
2021/05/17 05:42:24;;;;;;;12.40;2.70;;;9.20;99.90;;;;;;5046732;28;20033;-81
2021/05/17 05:44:50;;;;;;;4.90;2.33;;;9.30;99.90;;;;;;5030152;28;20479;-80
2021/05/17 05:47:17;;;;;;;6.13;2.70;;;9.30;99.90;;;;;;5046601;28;20083;-81
2021/05/17 05:49:48;;;;;;;6.68;2.55;;;9.40;99.90;;;;;;5046466;28;20032;-81
2021/05/17 05:52:15;;;;;;;4.47;2.58;;;9.50;99.90;;;;;;5048036;28;20013;-80
2021/05/17 05:54:41;;;;;;;7.50;2.50;;;9.60;99.90;;;;;;5046390;28;20029;-82
2021/05/17 05:57:08;;;;;;;5.63;2.40;;;9.80;99.90;;;;;;5030245;28;20395;-79
2021/05/17 05:59:34;;;;;;;7.30;2.95;;;10.10;99.90;;;;;;5047686;28;20075;-80
2021/05/17 06:02:00;;;;;;;5.05;2.55;;;10.40;99.90;;;;;;5046350;28;20595;-80
2021/05/17 06:04:26;;;;;;;6.18;3.05;;;10.60;99.90;;;;;;5029746;28;20323;-81
2021/05/17 06:06:52;;;;;;;6.30;2.55;;;10.80;99.90;;;;;;5046316;28;20443;-79
2021/05/17 06:09:17;;;;;;;2.47;1.70;;;11.60;99.90;;;;;;5029882;28;20052;-81
2021/05/17 06:11:44;;;;;;;3.08;1.70;;;13.20;99.30;;;;;;5046058;28;20023;-80
2021/05/17 06:14:10;;;;;;;2.75;1.60;;;14.10;96.50;;;;;;5029561;28;20099;-80
2021/05/17 06:16:37;;;;;;;5.95;1.75;;;14.10;95.30;;;;;;5029535;28;20028;-80
2021/05/17 06:19:03;;;;;;;4.30;1.48;;;13.90;95.10;;;;;;5046096;28;20458;-81
2021/05/17 06:21:29;;;;;;;4.30;2.05;;;13.80;95.30;;;;;;5029799;28;20395;-81
2021/05/17 06:23:57;;;;;;;7.03;2.08;;;13.80;95.70;;;;;;5029525;28;20035;-81
2021/05/17 06:26:25;;;;;;;4.75;1.83;;;14.00;95.60;;;;;;5046085;28;20036;-82
2021/05/17 06:28:50;;;;;;;6.80;1.83;;;14.10;94.80;;;;;;5029688;28;20025;-81
2021/05/17 06:31:17;;;;;;;4.38;1.58;;;14.00;94.70;;;;;;5029812;28;20025;-81
2021/05/17 06:33:46;;;;;;;5.50;1.80;;;13.80;94.40;;;;;;5045919;28;20402;-80
2021/05/17 06:36:13;;;;;;;5.03;1.83;;;13.50;94.50;;;;;;5045844;28;20131;-81
2021/05/17 06:38:40;;;;;;;8.32;2.10;;;13.30;94.90;;;;;;5029591;28;20033;-80
2021/05/17 06:41:10;;;;;;;5.25;1.90;;;13.20;95.10;;;;;;5029269;28;20522;-81
2021/05/17 06:43:36;;;;;;;5.72;1.80;;;13.00;95.20;;;;;;5045693;28;20112;-81
2021/05/17 06:46:08;;;;;;;6.45;2.10;;;12.90;95.60;;;;;;5045823;28;20025;-82
2021/05/17 06:48:42;;;;;;;3.67;1.70;;;12.90;95.80;;;;;;5047214;28;20016;-80
2021/05/17 06:51:18;;;;;;;6.25;2.05;;;12.90;95.80;;;;;;5051363;28;20131;-80
2021/05/17 06:53:45;;;;;;;6.65;2.03;;;12.90;95.80;;;;;;5049514;28;20025;-82
2021/05/17 06:56:21;;;;;;;4.93;1.88;;;12.90;95.80;;;;;;5033104;28;20036;-80
2021/05/17 06:58:55;;;;;;;12.88;2.47;;;13.00;95.90;;;;;;5034236;28;20037;-81
2021/05/17 07:01:26;;;;;;;7.20;2.13;;;13.00;95.80;;;;;;5049468;28;20068;-82
2021/05/17 07:03:52;;;;;;;3.38;1.77;;;13.10;95.80;;;;;;5033841;28;20441;-81
2021/05/17 07:06:23;;;;;;;4.68;2.10;;;13.10;95.60;;;;;;5049666;28;20382;-81
2021/05/17 07:14:34;;;;;;;5.38;1.92;;;13.20;95.50;;;;;;5005974;28;20033;-81
2021/05/17 07:17:00;;;;;;;6.80;2.72;;;13.30;95.40;;;;;;5032449;28;20029;-81
2021/05/17 07:19:26;;;;;;;7.53;2.20;;;13.30;95.50;;;;;;5033843;28;20025;-81
2021/05/17 07:24:36;;;;;;;7.88;2.00;;;13.50;95.50;;;;;;5051739;28;20128;-82
2021/05/17 07:27:03;;;;;;;6.53;2.05;;;13.60;95.40;;;;;;5051507;28;20021;-82
2021/05/17 07:29:32;;;;;;;4.40;1.80;;;13.60;95.20;;;;;;5050692;28;20047;-79
2021/05/17 07:31:58;;;;;;;18.70;2.75;;;13.60;95.10;;;;;;5033939;28;20475;-81
2021/05/17 07:34:24;;;;;;;4.05;1.60;;;13.60;94.90;;;;;;5033427;28;20039;-70
2021/05/17 07:36:50;;;;;;;18.27;3.80;;;13.50;94.70;;;;;;5048902;28;20359;-69
2021/05/17 07:39:16;;;;;;;16.45;8.57;;;13.50;94.80;;;;;;5048902;28;20040;-69
2021/05/17 07:41:42;;;;;;;30.30;17.02;;;13.50;94.90;;;;;;5047903;28;20045;-69
2021/05/17 07:44:08;;;;;;;9.60;5.78;;;13.60;95.00;;;;;;5049721;28;20047;-69
2021/05/17 07:46:34;;;;;;;28.58;3.97;;;13.70;95.20;;;;;;5049562;28;20056;-69
2021/05/17 07:49:21;;;;;;;5.65;1.95;;;13.90;95.50;;;;;;5048840;28;20053;-69
2021/05/17 07:51:47;;;;;;;7.22;1.60;;;14.40;95.50;;;;;;5048790;28;20033;-70
2021/05/17 07:54:15;;;;;;;5.35;1.50;;;15.20;95.60;;;;;;5048746;28;20109;-70
2021/05/17 07:56:42;;;;;;;5.40;1.83;;;16.50;95.40;;;;;;5048991;28;20025;-71
2021/05/17 07:59:08;;;;;;;7.10;1.60;;;17.80;93.40;;;;;;5048319;28;20032;-70
2021/05/17 08:01:34;;;;;;;2.80;1.35;;;18.40;91.60;;;;;;5048783;28;20038;-70
2021/05/17 08:03:59;;;;;;;4.93;1.00;;;19.50;91.00;;;;;;5042218;28;20153;-70
2021/05/17 08:06:25;;;;;;;7.55;1.20;;;20.80;89.50;;;;;;5048203;28;20035;-70
2021/05/17 08:08:52;;;;;;;2.53;1.20;;;22.30;84.80;;;;;;5047953;28;20044;-71
2021/05/17 08:11:19;;;;;;;14.05;1.77;;;23.80;80.30;;;;;;5048032;28;20029;-70
2021/05/17 08:13:45;;;;;;;3.38;0.80;;;25.10;75.00;;;;;;5048812;28;20021;-71
2021/05/17 08:16:14;;;;;;;6.88;1.10;;;26.00;70.30;;;;;;5048161;28;20025;-71
2021/05/17 08:18:41;;;;;;;7.20;1.33;;;26.70;67.00;;;;;;5048201;28;20025;-71
2021/05/17 08:21:07;;;;;;;6.85;1.27;;;27.40;64.90;;;;;;5048166;28;20399;-70
2021/05/17 08:23:34;;;;;;;10.02;1.50;;;28.00;62.10;;;;;;5047724;28;20025;-71
2021/05/17 08:26:00;;;;;;;3.90;1.38;;;28.50;60.40;;;;;;5047669;28;20075;-71
2021/05/17 08:28:25;;;;;;;8.35;2.30;;;29.10;58.20;;;;;;5047712;28;20095;-71
2021/05/17 08:30:58;;;;;;;4.05;1.70;;;29.40;56.80;;;;;;5047997;28;20029;-69
2021/05/17 08:33:24;;;;;;;7.18;3.15;;;29.80;55.20;;;;;;5045238;28;20097;-69
2021/05/17 08:35:50;;;;;;;7.97;2.55;;;30.20;53.90;;;;;;5047864;28;20033;-71
2021/05/17 08:38:16;;;;;;;6.38;1.48;;;29.90;51.60;;;;;;5046548;28;20025;-70
2021/05/17 08:40:44;;;;;;;3.10;1.30;;;29.50;52.00;;;;;;5029293;28;20484;-71
2021/05/17 08:43:10;;;;;;;8.15;1.55;;;29.50;51.40;;;;;;5047124;28;20437;-70
2021/05/17 08:45:37;;;;;;;5.07;0.90;;;29.50;51.00;;;;;;5046981;28;20387;-71
2021/05/17 08:48:04;;;;;;;5.30;1.27;;;29.70;50.20;;;;;;5047383;28;20171;-71
2021/05/17 08:50:31;;;;;;;10.13;1.17;;;29.50;49.40;;;;;;5047188;28;20052;-71
2021/05/17 08:52:57;;;;;;;3.65;1.20;;;28.60;48.80;;;;;;5047736;28;20029;-70
2021/05/17 08:55:23;;;;;;;5.50;1.63;;;28.00;50.50;;;;;;5029617;28;20033;-72
2021/05/17 08:57:49;;;;;;;5.43;1.20;;;28.20;51.10;;;;;;5029871;28;20043;-71
2021/05/17 09:00:18;;;;;;;5.43;1.00;;;29.00;50.50;;;;;;5047568;28;20032;-71
2021/05/17 09:02:48;;;;;;;4.78;0.90;;;29.20;48.60;;;;;;5047636;28;20527;-71
2021/05/17 09:05:27;;;;;;;2.65;0.80;;;28.30;47.50;;;;;;5047670;28;20120;-71
2021/05/17 09:07:57;;;;;;;3.92;1.20;;;27.20;47.90;;;;;;5047651;28;20027;-71
2021/05/17 09:10:26;;;;;;;5.60;0.70;;;26.10;48.00;;;;;;5046358;28;20050;-71
2021/05/17 09:13:01;;;;;;;3.28;0.75;;;24.80;47.90;;;;;;5046944;28;20016;-71
2021/05/17 09:15:33;;;;;;;6.15;1.08;;;23.50;47.40;;;;;;5046405;28;20044;-70
2021/05/17 09:18:06;;;;;;;3.58;1.30;;;22.60;48.10;;;;;;5028862;28;20370;-70
2021/05/17 09:20:37;;;;;;;3.83;0.85;;;22.00;49.00;;;;;;5028600;28;20096;-72
2021/05/17 09:23:17;;;;;;;4.47;1.23;;;22.10;50.00;;;;;;5028764;28;20084;-71
2021/05/17 09:25:57;;;;;;;;;;;22.50;50.10;;;;;;5028569;28;20379;-72
2021/05/17 09:28:38;;;;;;;1.38;0.57;;;23.80;52.80;;;;;;5028723;28;19913;-71
2021/05/17 09:31:21;;;;;;;2.10;0.65;;;24.90;50.20;;;;;;5028515;28;20017;-70
2021/05/17 09:33:56;;;;;;;4.57;2.97;;;24.40;47.70;;;;;;5028530;28;20029;-71
2021/05/17 09:36:48;;;;;;;5.68;1.10;;;24.60;48.70;;;;;;5028374;28;20375;-71
2021/05/17 09:39:17;;;;;;;9.35;1.50;;;26.00;48.80;;;;;;5024209;28;20154;-71
2021/05/17 09:41:43;;;;;;;3.30;0.80;;;26.80;47.10;;;;;;5028043;28;20049;-71
2021/05/17 09:44:15;;;;;;;2.00;1.13;;;26.60;46.70;;;;;;5027708;28;20029;-71
2021/05/17 09:47:06;;;;;;;6.72;0.90;;;26.10;46.30;;;;;;5027975;28;20072;-71
2021/05/17 09:49:39;;;;;;;10.43;1.08;;;25.20;46.70;;;;;;5028160;28;20018;-70
2021/05/17 09:52:11;;;;;;;6.72;0.70;;;24.40;47.20;;;;;;5027710;28;20033;-71
2021/05/17 09:54:54;;;;;;;2.33;0.85;;;24.10;48.70;;;;;;5027942;28;20032;-71
2021/05/17 09:57:23;;;;;;;3.55;0.75;;;24.10;47.80;;;;;;5040524;28;20037;-71
2021/05/17 09:59:51;;;;;;;5.45;1.25;;;24.00;47.70;;;;;;5029445;28;20064;-71
2021/05/17 10:02:38;;;;;;;5.97;1.02;;;23.80;47.30;;;;;;5047089;28;20141;-69
2021/05/17 10:05:20;;;;;;;11.27;1.20;;;23.40;47.10;;;;;;5032607;28;20052;-81
2021/05/17 10:07:49;;;;;;;11.15;1.20;;;23.40;48.20;;;;;;5030350;28;20487;-81
2021/05/17 10:10:15;;;;;;;3.17;0.98;;;24.10;48.90;;;;;;5029797;28;20033;-84
2021/05/17 10:12:41;;;;;;;6.90;2.50;;;25.40;49.10;;;;;;5016164;28;20052;-82
2021/05/17 10:15:11;;;;;;;2.45;1.20;;;26.90;48.40;;;;;;5015540;28;20047;-82
2021/05/17 10:17:36;;;;;;;4.60;1.50;;;28.20;46.40;;;;;;5050721;28;20021;-81
2021/05/17 10:20:05;;;;;;;4.03;1.15;;;29.30;45.90;;;;;;5015502;28;20040;-83
2021/05/17 10:22:31;;;;;;;3.60;1.33;;;30.00;45.10;;;;;;5017147;28;20393;-78
2021/05/17 10:24:58;;;;;;;2.70;0.80;;;29.80;43.60;;;;;;5035931;28;20021;-83
2021/05/17 10:27:28;;;;;;;5.78;1.13;;;29.30;43.20;;;;;;5036249;28;20106;-82
2021/05/17 10:30:01;;;;;;;3.92;1.10;;;28.80;43.30;;;;;;5054819;28;20028;-81
2021/05/17 10:33:00;;;;;;;3.15;1.30;;;28.00;42.10;;;;;;5035561;28;20025;-86
2021/05/17 10:35:27;;;;;;;5.18;1.33;;;26.90;42.80;;;;;;5014073;28;20029;-83
2021/05/17 10:38:14;;;;;;;2.83;0.93;;;25.80;42.90;;;;;;5035577;28;20021;-84
2021/05/17 10:40:43;;;;;;;3.72;0.90;;;24.40;43.50;;;;;;5035504;28;20032;-83
2021/05/17 10:46:45;;;;;;;2.50;0.80;;;22.40;45.40;;;;;;5032980;28;20040;-79
2021/05/17 10:49:34;;;;;;;1.45;0.70;;;21.70;46.10;;;;;;5015435;28;20029;-79
2021/05/17 10:52:06;;;;;;;2.00;0.77;;;21.10;46.40;;;;;;5031920;28;20471;-82
2021/05/17 10:54:36;;;;;;;1.52;0.75;;;20.70;46.90;;;;;;5034921;28;20052;-83
2021/05/17 10:57:15;;;;;;;3.55;0.90;;;20.50;47.50;;;;;;5035431;28;20131;-81
2021/05/17 11:02:38;;;;;;;4.00;1.95;;;20.10;49.10;;;;;;5052903;28;20088;-81
2021/05/17 11:05:09;;;;;;;3.63;0.65;;;20.10;49.00;;;;;;5031424;28;20480;-82
2021/05/17 11:07:48;;;;;;;2.00;0.80;;;20.20;49.00;;;;;;5014898;28;20070;-82
2021/05/17 11:10:25;;;;;;;1.75;0.70;;;20.40;49.20;;;;;;5015419;28;20116;-80
2021/05/17 11:12:55;;;;;;;3.47;0.82;;;20.60;48.90;;;;;;5028854;28;20127;-83
2021/05/17 11:15:40;;;;;;;6.03;2.10;;;21.10;49.00;;;;;;5035027;28;20053;-80
2021/05/17 11:18:05;;;;;;;4.32;0.82;;;21.60;48.10;;;;;;5014882;28;20021;-81
2021/05/17 11:20:44;;;;;;;2.38;1.25;;;22.00;47.70;;;;;;5014893;28;20040;-81
2021/05/17 11:23:18;;;;;;;4.88;1.15;;;22.40;46.80;;;;;;5033618;28;20108;-83
2021/05/17 11:31:27;;;;;;;3.55;2.13;;;26.40;45.90;;;;;;5032508;28;20021;-80
2021/05/17 11:34:14;;;;;;;2.33;0.80;;;27.70;45.40;;;;;;5031340;28;20541;-79
2021/05/17 11:36:52;;;;;;;3.50;0.98;;;29.00;44.20;;;;;;5034566;28;20060;-79
2021/05/17 11:39:27;;;;;;;4.43;0.98;;;29.00;43.40;;;;;;5035348;28;20029;-79
2021/05/17 11:41:59;;;;;;;3.75;0.90;;;28.50;41.80;;;;;;5034219;28;20414;-81
2021/05/17 11:44:33;;;;;;;2.88;0.88;;;27.40;41.90;;;;;;5034436;28;20075;-79
2021/05/17 11:47:06;;;;;;;2.70;0.88;;;26.40;42.50;;;;;;5033936;28;20139;-80
2021/05/17 11:49:34;;;;;;;2.50;1.00;;;25.40;42.70;;;;;;5033929;28;20410;-81
2021/05/17 11:52:11;;;;;;;6.80;2.08;;;24.60;43.20;;;;;;5018144;28;20127;-81
2021/05/17 11:54:40;;;;;;;5.10;1.40;;;23.80;44.10;;;;;;5034015;28;20027;-80
2021/05/17 11:57:08;;;;;;;3.38;0.85;;;23.30;44.80;;;;;;5051905;28;20112;-81
2021/05/17 11:59:35;;;;;;;5.60;1.20;;;22.90;45.40;;;;;;5034223;28;20083;-83
2021/05/17 12:02:03;;;;;;;2.10;0.93;;;22.40;45.10;;;;;;5018167;28;20037;-81
2021/05/17 12:04:34;;;;;;;1.77;0.90;;;22.10;45.70;;;;;;5034031;28;20033;-82
2021/05/17 12:07:11;;;;;;;4.50;1.30;;;22.10;46.40;;;;;;5034503;28;20098;-81
2021/05/17 12:10:07;;;;;;;6.28;2.30;;;22.70;47.20;;;;;;5051900;28;20021;-78
2021/05/17 12:12:32;;;;;;;4.07;1.55;;;23.70;47.30;;;;;;4997343;28;20029;-82
2021/05/17 12:15:01;;;;;;;5.53;1.52;;;24.70;46.80;;;;;;5051652;28;20029;-82
2021/05/17 12:17:28;;;;;;;7.45;1.70;;;24.90;44.60;;;;;;5051501;28;20483;-81
2021/05/17 12:20:24;;;;;;;3.50;0.95;;;24.20;43.80;;;;;;5051534;28;20111;-82
2021/05/17 12:22:50;;;;;;;5.05;1.08;;;23.50;44.60;;;;;;5028928;28;20037;-82
2021/05/17 12:25:19;;;;;;;4.68;1.05;;;23.00;45.30;;;;;;5016511;28;20055;-81
2021/05/17 12:27:46;;;;;;;3.60;1.10;;;22.50;45.50;;;;;;5033926;28;20025;-82
2021/05/17 12:30:22;;;;;;;5.75;1.30;;;22.20;46.10;;;;;;5033117;28;20029;-81
2021/05/17 12:32:52;;;;;;;4.65;1.70;;;22.30;47.10;;;;;;5014497;28;20463;-80
2021/05/17 12:35:20;;;;;;;;;;;22.90;48.00;;;;;;5051655;28;20029;-81
2021/05/17 12:37:49;;;;;;;4.37;0.70;;;24.10;48.90;;;;;;5025975;28;19911;-82
2021/05/17 12:40:42;;;;;;;5.35;1.30;;;25.00;47.50;;;;;;5033754;28;20116;-82
2021/05/17 12:43:16;;;;;;;5.15;1.27;;;25.90;46.20;;;;;;5031424;28;20112;-81
2021/05/17 12:45:47;;;;;;;7.47;0.98;;;26.10;44.90;;;;;;5051722;28;20021;-80
2021/05/17 12:48:43;;;;;;;2.92;1.10;;;25.80;44.30;;;;;;5033012;28;20380;-82
2021/05/17 12:51:31;;;;;;;4.28;1.58;;;25.30;43.80;;;;;;5010052;28;20039;-82
2021/05/17 12:54:19;;;;;;;3.47;1.05;;;24.70;43.50;;;;;;5013227;28;20053;-75
2021/05/17 12:56:45;;;;;;;3.83;0.90;;;24.20;44.10;;;;;;5044221;28;20024;-81
2021/05/17 12:59:10;;;;;;;4.35;1.00;;;24.00;44.00;;;;;;5017320;28;20098;-80
2021/05/17 13:01:37;;;;;;;4.78;1.63;;;23.80;44.30;;;;;;5033085;28;20056;-82
2021/05/17 13:04:04;;;;;;;5.95;1.65;;;23.60;44.50;;;;;;5032647;28;20461;-82
2021/05/17 13:06:31;;;;;;;6.20;1.15;;;23.40;44.40;;;;;;5017856;28;20033;-79
2021/05/17 13:09:07;;;;;;;3.90;1.48;;;23.10;44.60;;;;;;5033031;28;20055;-80
2021/05/17 13:11:43;;;;;;;0.80;0.60;;;22.80;45.00;;;;;;5021539;28;20013;-81
2021/05/17 13:14:17;;;;;;;8.88;1.58;;;22.70;45.30;;;;;;5018119;28;20029;-81
2021/05/17 13:16:49;;;;;;;1.67;1.00;;;22.60;45.80;;;;;;5034271;28;20052;-80
2021/05/17 13:33:47;;;;;;;2.63;1.48;;;21.80;45.70;;;;;;5030452;28;20059;-80
2021/05/17 13:36:16;;;;;;;3.50;1.27;;;21.70;46.50;;;;;;5011907;28;20038;-80
2021/05/17 13:38:51;;;;;;;5.20;1.42;;;21.70;46.90;;;;;;5031991;28;20112;-81
2021/05/17 13:41:18;;;;;;;2.65;1.27;;;21.80;46.60;;;;;;5032149;28;20045;-81
2021/05/17 13:43:44;;;;;;;5.57;1.50;;;21.80;46.60;;;;;;5015092;28;20057;-81